sensor_id;sensor_type;location;lat;lon;timestamp;P1;durP1;ratioP1;P2;durP2;ratioP2
21458;SDS011;10891;49.350;19.386;2023-11-18T00:01:52;21.48;;;10.80;;
21458;SDS011;10891;49.350;19.386;2023-11-18T00:04:19;18.77;;;10.93;;
21458;SDS011;10891;49.350;19.386;2023-11-18T00:06:47;17.80;;;10.70;;
21458;SDS011;10891;49.350;19.386;2023-11-18T00:09:14;17.60;;;10.27;;
21458;SDS011;10891;49.350;19.386;2023-11-18T00:11:41;19.30;;;11.25;;
21458;SDS011;10891;49.350;19.386;2023-11-18T00:14:09;22.30;;;12.23;;
21458;SDS011;10891;49.350;19.386;2023-11-18T00:16:36;23.02;;;11.00;;
21458;SDS011;10891;49.350;19.386;2023-11-18T00:19:05;20.70;;;9.93;;
21458;SDS011;10891;49.350;19.386;2023-11-18T00:21:34;14.65;;;8.57;;
21458;SDS011;10891;49.350;19.386;2023-11-18T00:24:01;18.05;;;9.52;;
21458;SDS011;10891;49.350;19.386;2023-11-18T00:26:28;22.13;;;10.45;;
21458;SDS011;10891;49.350;19.386;2023-11-18T00:28:55;14.50;;;8.75;;
21458;SDS011;10891;49.350;19.386;2023-11-18T00:31:23;11.60;;;7.07;;
21458;SDS011;10891;49.350;19.386;2023-11-18T00:33:50;13.60;;;7.22;;
21458;SDS011;10891;49.350;19.386;2023-11-18T00:36:18;14.80;;;8.05;;
21458;SDS011;10891;49.350;19.386;2023-11-18T00:38:46;11.27;;;7.45;;
21458;SDS011;10891;49.350;19.386;2023-11-18T00:41:14;11.85;;;7.20;;
21458;SDS011;10891;49.350;19.386;2023-11-18T00:43:42;17.45;;;8.70;;
21458;SDS011;10891;49.350;19.386;2023-11-18T00:46:09;31.75;;;13.50;;
21458;SDS011;10891;49.350;19.386;2023-11-18T00:48:36;46.13;;;19.63;;
21458;SDS011;10891;49.350;19.386;2023-11-18T00:51:04;12.55;;;8.32;;
21458;SDS011;10891;49.350;19.386;2023-11-18T00:53:33;13.63;;;8.80;;
21458;SDS011;10891;49.350;19.386;2023-11-18T00:56:01;15.25;;;8.05;;
21458;SDS011;10891;49.350;19.386;2023-11-18T00:58:32;12.48;;;7.78;;
21458;SDS011;10891;49.350;19.386;2023-11-18T01:01:01;13.70;;;7.95;;
21458;SDS011;10891;49.350;19.386;2023-11-18T01:03:31;14.32;;;8.88;;
21458;SDS011;10891;49.350;19.386;2023-11-18T01:06:00;15.38;;;7.50;;
21458;SDS011;10891;49.350;19.386;2023-11-18T01:08:27;14.23;;;8.68;;
21458;SDS011;10891;49.350;19.386;2023-11-18T01:10:55;14.15;;;8.07;;
21458;SDS011;10891;49.350;19.386;2023-11-18T01:13:22;13.23;;;8.57;;
21458;SDS011;10891;49.350;19.386;2023-11-18T01:15:51;14.73;;;8.07;;
21458;SDS011;10891;49.350;19.386;2023-11-18T01:18:18;10.77;;;6.25;;
21458;SDS011;10891;49.350;19.386;2023-11-18T01:20:46;11.57;;;7.07;;
21458;SDS011;10891;49.350;19.386;2023-11-18T01:23:13;9.45;;;5.88;;
21458;SDS011;10891;49.350;19.386;2023-11-18T01:25:40;7.85;;;5.15;;
21458;SDS011;10891;49.350;19.386;2023-11-18T01:28:08;8.68;;;5.03;;
21458;SDS011;10891;49.350;19.386;2023-11-18T01:30:36;7.68;;;4.50;;
21458;SDS011;10891;49.350;19.386;2023-11-18T01:33:03;6.20;;;4.00;;
21458;SDS011;10891;49.350;19.386;2023-11-18T01:35:31;16.77;;;8.90;;
21458;SDS011;10891;49.350;19.386;2023-11-18T01:37:58;12.52;;;6.97;;
21458;SDS011;10891;49.350;19.386;2023-11-18T01:40:25;29.17;;;13.52;;
21458;SDS011;10891;49.350;19.386;2023-11-18T01:42:55;22.73;;;10.20;;
21458;SDS011;10891;49.350;19.386;2023-11-18T01:45:24;10.32;;;6.07;;
21458;SDS011;10891;49.350;19.386;2023-11-18T01:47:52;9.43;;;5.55;;
21458;SDS011;10891;49.350;19.386;2023-11-18T01:50:20;7.60;;;4.70;;
21458;SDS011;10891;49.350;19.386;2023-11-18T01:52:47;7.20;;;4.80;;
21458;SDS011;10891;49.350;19.386;2023-11-18T01:55:15;6.93;;;5.15;;
21458;SDS011;10891;49.350;19.386;2023-11-18T01:57:42;8.43;;;4.80;;
21458;SDS011;10891;49.350;19.386;2023-11-18T02:00:10;8.20;;;4.72;;
21458;SDS011;10891;49.350;19.386;2023-11-18T02:02:39;6.20;;;4.18;;
21458;SDS011;10891;49.350;19.386;2023-11-18T02:05:06;6.60;;;3.90;;
21458;SDS011;10891;49.350;19.386;2023-11-18T02:07:34;5.80;;;4.38;;
21458;SDS011;10891;49.350;19.386;2023-11-18T02:10:02;9.02;;;4.82;;
21458;SDS011;10891;49.350;19.386;2023-11-18T02:12:35;17.10;;;7.55;;
21458;SDS011;10891;49.350;19.386;2023-11-18T02:15:05;21.83;;;9.30;;
21458;SDS011;10891;49.350;19.386;2023-11-18T02:17:34;8.35;;;4.90;;
21458;SDS011;10891;49.350;19.386;2023-11-18T02:20:06;8.25;;;4.75;;
21458;SDS011;10891;49.350;19.386;2023-11-18T02:22:41;6.28;;;4.30;;
21458;SDS011;10891;49.350;19.386;2023-11-18T02:25:09;10.10;;;5.05;;
21458;SDS011;10891;49.350;19.386;2023-11-18T02:27:37;9.02;;;4.60;;
21458;SDS011;10891;49.350;19.386;2023-11-18T02:30:05;7.75;;;4.95;;
21458;SDS011;10891;49.350;19.386;2023-11-18T02:32:39;8.27;;;4.22;;
21458;SDS011;10891;49.350;19.386;2023-11-18T02:35:09;7.43;;;4.95;;
21458;SDS011;10891;49.350;19.386;2023-11-18T02:37:37;13.65;;;7.40;;
21458;SDS011;10891;49.350;19.386;2023-11-18T02:40:07;10.80;;;4.60;;
21458;SDS011;10891;49.350;19.386;2023-11-18T02:42:40;10.52;;;4.03;;
21458;SDS011;10891;49.350;19.386;2023-11-18T02:45:10;6.35;;;4.15;;
21458;SDS011;10891;49.350;19.386;2023-11-18T02:47:41;4.72;;;3.50;;
21458;SDS011;10891;49.350;19.386;2023-11-18T02:50:09;5.68;;;3.70;;
21458;SDS011;10891;49.350;19.386;2023-11-18T02:52:36;5.78;;;3.97;;
21458;SDS011;10891;49.350;19.386;2023-11-18T02:55:04;5.35;;;4.25;;
21458;SDS011;10891;49.350;19.386;2023-11-18T02:57:33;5.25;;;3.47;;
21458;SDS011;10891;49.350;19.386;2023-11-18T03:00:01;6.35;;;3.90;;
21458;SDS011;10891;49.350;19.386;2023-11-18T03:02:29;5.25;;;3.72;;
21458;SDS011;10891;49.350;19.386;2023-11-18T03:04:56;6.75;;;4.28;;
21458;SDS011;10891;49.350;19.386;2023-11-18T03:07:23;6.38;;;3.97;;
21458;SDS011;10891;49.350;19.386;2023-11-18T03:09:52;7.18;;;3.97;;
21458;SDS011;10891;49.350;19.386;2023-11-18T03:12:22;10.00;;;4.60;;
21458;SDS011;10891;49.350;19.386;2023-11-18T03:14:52;8.77;;;4.72;;
21458;SDS011;10891;49.350;19.386;2023-11-18T03:17:21;75.07;;;18.17;;
21458;SDS011;10891;49.350;19.386;2023-11-18T03:19:48;160.57;;;32.45;;
21458;SDS011;10891;49.350;19.386;2023-11-18T03:22:16;24.20;;;8.93;;
21458;SDS011;10891;49.350;19.386;2023-11-18T03:24:43;12.80;;;5.97;;
21458;SDS011;10891;49.350;19.386;2023-11-18T03:27:10;6.97;;;5.43;;
21458;SDS011;10891;49.350;19.386;2023-11-18T03:29:37;5.63;;;4.82;;
21458;SDS011;10891;49.350;19.386;2023-11-18T03:32:05;5.45;;;4.35;;
21458;SDS011;10891;49.350;19.386;2023-11-18T03:34:33;7.40;;;4.22;;
21458;SDS011;10891;49.350;19.386;2023-11-18T03:37:01;5.57;;;4.13;;
21458;SDS011;10891;49.350;19.386;2023-11-18T03:39:28;16.05;;;6.28;;
21458;SDS011;10891;49.350;19.386;2023-11-18T03:41:55;40.38;;;11.77;;
21458;SDS011;10891;49.350;19.386;2023-11-18T03:44:23;8.13;;;4.28;;
21458;SDS011;10891;49.350;19.386;2023-11-18T03:46:50;5.80;;;4.10;;
21458;SDS011;10891;49.350;19.386;2023-11-18T03:49:17;5.78;;;3.97;;
21458;SDS011;10891;49.350;19.386;2023-11-18T03:51:46;4.55;;;3.05;;
21458;SDS011;10891;49.350;19.386;2023-11-18T03:54:14;5.70;;;3.90;;
21458;SDS011;10891;49.350;19.386;2023-11-18T03:56:41;5.72;;;4.00;;
21458;SDS011;10891;49.350;19.386;2023-11-18T03:59:08;6.00;;;4.05;;
21458;SDS011;10891;49.350;19.386;2023-11-18T04:01:36;7.15;;;4.07;;
21458;SDS011;10891;49.350;19.386;2023-11-18T04:04:03;7.20;;;4.15;;
21458;SDS011;10891;49.350;19.386;2023-11-18T04:06:30;7.38;;;4.38;;
21458;SDS011;10891;49.350;19.386;2023-11-18T04:08:58;7.28;;;4.53;;
21458;SDS011;10891;49.350;19.386;2023-11-18T04:11:26;7.78;;;4.90;;
21458;SDS011;10891;49.350;19.386;2023-11-18T04:13:53;8.20;;;4.95;;
21458;SDS011;10891;49.350;19.386;2023-11-18T04:16:21;7.05;;;4.28;;
21458;SDS011;10891;49.350;19.386;2023-11-18T04:18:48;7.68;;;4.10;;
21458;SDS011;10891;49.350;19.386;2023-11-18T04:21:16;4.63;;;3.13;;
21458;SDS011;10891;49.350;19.386;2023-11-18T04:23:43;2.88;;;2.35;;
21458;SDS011;10891;49.350;19.386;2023-11-18T04:26:13;3.85;;;2.70;;
21458;SDS011;10891;49.350;19.386;2023-11-18T04:28:40;2.67;;;2.25;;
21458;SDS011;10891;49.350;19.386;2023-11-18T04:31:07;3.63;;;2.47;;
21458;SDS011;10891;49.350;19.386;2023-11-18T04:33:36;2.40;;;2.20;;
21458;SDS011;10891;49.350;19.386;2023-11-18T04:36:05;2.90;;;2.20;;
21458;SDS011;10891;49.350;19.386;2023-11-18T04:38:34;2.85;;;2.25;;
21458;SDS011;10891;49.350;19.386;2023-11-18T04:41:02;3.42;;;2.45;;
21458;SDS011;10891;49.350;19.386;2023-11-18T04:43:31;3.53;;;2.50;;
21458;SDS011;10891;49.350;19.386;2023-11-18T04:45:58;2.78;;;2.40;;
21458;SDS011;10891;49.350;19.386;2023-11-18T04:48:26;2.92;;;2.40;;
21458;SDS011;10891;49.350;19.386;2023-11-18T04:50:53;4.35;;;2.60;;
21458;SDS011;10891;49.350;19.386;2023-11-18T04:53:20;3.13;;;2.40;;
21458;SDS011;10891;49.350;19.386;2023-11-18T04:55:47;4.13;;;3.00;;
21458;SDS011;10891;49.350;19.386;2023-11-18T04:58:15;2.55;;;2.20;;
21458;SDS011;10891;49.350;19.386;2023-11-18T05:00:43;3.13;;;2.42;;
21458;SDS011;10891;49.350;19.386;2023-11-18T05:03:11;3.40;;;2.83;;
21458;SDS011;10891;49.350;19.386;2023-11-18T05:05:38;3.88;;;2.90;;
21458;SDS011;10891;49.350;19.386;2023-11-18T05:08:05;3.72;;;2.83;;
21458;SDS011;10891;49.350;19.386;2023-11-18T05:10:33;2.53;;;2.05;;
21458;SDS011;10891;49.350;19.386;2023-11-18T05:13:00;3.22;;;2.30;;
21458;SDS011;10891;49.350;19.386;2023-11-18T05:15:27;3.08;;;2.25;;
21458;SDS011;10891;49.350;19.386;2023-11-18T05:17:57;3.05;;;2.35;;
21458;SDS011;10891;49.350;19.386;2023-11-18T05:20:24;4.10;;;3.30;;
21458;SDS011;10891;49.350;19.386;2023-11-18T05:22:52;4.15;;;3.00;;
21458;SDS011;10891;49.350;19.386;2023-11-18T05:25:20;3.53;;;2.50;;
21458;SDS011;10891;49.350;19.386;2023-11-18T05:27:47;3.97;;;2.97;;
21458;SDS011;10891;49.350;19.386;2023-11-18T05:30:14;4.30;;;2.55;;
21458;SDS011;10891;49.350;19.386;2023-11-18T05:32:43;2.38;;;2.17;;
21458;SDS011;10891;49.350;19.386;2023-11-18T05:35:11;3.35;;;2.67;;
21458;SDS011;10891;49.350;19.386;2023-11-18T05:37:39;4.13;;;2.95;;
21458;SDS011;10891;49.350;19.386;2023-11-18T05:40:06;2.33;;;2.05;;
21458;SDS011;10891;49.350;19.386;2023-11-18T05:42:35;4.35;;;3.45;;
21458;SDS011;10891;49.350;19.386;2023-11-18T05:45:03;2.58;;;1.85;;
21458;SDS011;10891;49.350;19.386;2023-11-18T05:47:32;4.10;;;2.17;;
21458;SDS011;10891;49.350;19.386;2023-11-18T05:49:59;2.53;;;2.30;;
21458;SDS011;10891;49.350;19.386;2023-11-18T05:52:28;3.08;;;2.53;;
21458;SDS011;10891;49.350;19.386;2023-11-18T05:54:55;3.22;;;2.60;;
21458;SDS011;10891;49.350;19.386;2023-11-18T05:57:22;14.48;;;7.18;;
21458;SDS011;10891;49.350;19.386;2023-11-18T05:59:52;3.28;;;2.28;;
21458;SDS011;10891;49.350;19.386;2023-11-18T06:02:20;2.38;;;2.10;;
21458;SDS011;10891;49.350;19.386;2023-11-18T06:04:48;2.30;;;2.10;;
21458;SDS011;10891;49.350;19.386;2023-11-18T06:07:16;3.22;;;2.70;;
21458;SDS011;10891;49.350;19.386;2023-11-18T06:09:45;19.25;;;14.32;;
21458;SDS011;10891;49.350;19.386;2023-11-18T06:12:12;13.27;;;9.18;;
21458;SDS011;10891;49.350;19.386;2023-11-18T06:14:42;9.40;;;5.75;;
21458;SDS011;10891;49.350;19.386;2023-11-18T06:17:11;28.70;;;14.52;;
21458;SDS011;10891;49.350;19.386;2023-11-18T06:19:39;12.07;;;7.28;;
21458;SDS011;10891;49.350;19.386;2023-11-18T06:22:06;2.85;;;2.53;;
21458;SDS011;10891;49.350;19.386;2023-11-18T06:24:33;3.03;;;2.70;;
21458;SDS011;10891;49.350;19.386;2023-11-18T06:27:02;3.03;;;2.17;;
21458;SDS011;10891;49.350;19.386;2023-11-18T06:29:29;2.03;;;1.80;;
21458;SDS011;10891;49.350;19.386;2023-11-18T06:31:56;11.05;;;7.88;;
21458;SDS011;10891;49.350;19.386;2023-11-18T06:34:23;6.43;;;4.45;;
21458;SDS011;10891;49.350;19.386;2023-11-18T06:36:51;17.08;;;9.88;;
21458;SDS011;10891;49.350;19.386;2023-11-18T06:39:19;14.77;;;9.23;;
21458;SDS011;10891;49.350;19.386;2023-11-18T06:41:54;10.32;;;5.82;;
21458;SDS011;10891;49.350;19.386;2023-11-18T06:44:23;16.90;;;9.82;;
21458;SDS011;10891;49.350;19.386;2023-11-18T06:46:50;21.38;;;16.77;;
21458;SDS011;10891;49.350;19.386;2023-11-18T06:49:17;7.57;;;4.45;;
21458;SDS011;10891;49.350;19.386;2023-11-18T06:51:44;6.88;;;5.80;;
21458;SDS011;10891;49.350;19.386;2023-11-18T06:54:12;4.35;;;3.35;;
21458;SDS011;10891;49.350;19.386;2023-11-18T06:56:41;4.07;;;2.92;;
21458;SDS011;10891;49.350;19.386;2023-11-18T06:59:09;4.30;;;3.10;;
21458;SDS011;10891;49.350;19.386;2023-11-18T07:01:39;3.88;;;2.80;;
21458;SDS011;10891;49.350;19.386;2023-11-18T07:04:08;8.18;;;5.00;;
21458;SDS011;10891;49.350;19.386;2023-11-18T07:06:35;47.50;;;27.88;;
21458;SDS011;10891;49.350;19.386;2023-11-18T07:09:04;14.05;;;9.82;;
21458;SDS011;10891;49.350;19.386;2023-11-18T07:11:37;11.15;;;7.78;;
21458;SDS011;10891;49.350;19.386;2023-11-18T07:14:05;15.40;;;10.57;;
21458;SDS011;10891;49.350;19.386;2023-11-18T07:16:34;13.10;;;7.75;;
21458;SDS011;10891;49.350;19.386;2023-11-18T07:19:03;8.55;;;6.28;;
21458;SDS011;10891;49.350;19.386;2023-11-18T07:21:30;8.70;;;4.75;;
21458;SDS011;10891;49.350;19.386;2023-11-18T07:23:58;9.80;;;6.25;;
21458;SDS011;10891;49.350;19.386;2023-11-18T07:26:26;13.10;;;7.22;;
21458;SDS011;10891;49.350;19.386;2023-11-18T07:28:53;9.30;;;6.00;;
21458;SDS011;10891;49.350;19.386;2023-11-18T07:31:21;47.20;;;27.80;;
21458;SDS011;10891;49.350;19.386;2023-11-18T07:33:50;11.55;;;7.45;;
21458;SDS011;10891;49.350;19.386;2023-11-18T07:36:19;10.60;;;8.35;;
21458;SDS011;10891;49.350;19.386;2023-11-18T07:38:46;6.28;;;4.53;;
21458;SDS011;10891;49.350;19.386;2023-11-18T07:41:15;6.28;;;4.28;;
21458;SDS011;10891;49.350;19.386;2023-11-18T07:43:49;8.90;;;5.95;;
21458;SDS011;10891;49.350;19.386;2023-11-18T07:46:19;30.60;;;18.10;;
21458;SDS011;10891;49.350;19.386;2023-11-18T07:48:48;33.30;;;22.02;;
21458;SDS011;10891;49.350;19.386;2023-11-18T07:51:17;18.88;;;11.02;;
21458;SDS011;10891;49.350;19.386;2023-11-18T07:53:48;4.78;;;3.63;;
21458;SDS011;10891;49.350;19.386;2023-11-18T07:56:15;13.75;;;3.63;;
21458;SDS011;10891;49.350;19.386;2023-11-18T07:58:43;15.13;;;3.45;;
21458;SDS011;10891;49.350;19.386;2023-11-18T08:01:11;15.80;;;4.53;;
21458;SDS011;10891;49.350;19.386;2023-11-18T08:03:41;20.85;;;5.40;;
21458;SDS011;10891;49.350;19.386;2023-11-18T08:06:08;7.60;;;3.83;;
21458;SDS011;10891;49.350;19.386;2023-11-18T08:08:37;13.27;;;3.33;;
21458;SDS011;10891;49.350;19.386;2023-11-18T08:11:06;10.85;;;3.90;;
21458;SDS011;10891;49.350;19.386;2023-11-18T08:13:33;7.05;;;2.58;;
21458;SDS011;10891;49.350;19.386;2023-11-18T08:16:01;3.72;;;2.83;;
21458;SDS011;10891;49.350;19.386;2023-11-18T08:18:28;19.45;;;9.93;;
21458;SDS011;10891;49.350;19.386;2023-11-18T08:20:56;9.10;;;4.35;;
21458;SDS011;10891;49.350;19.386;2023-11-18T08:23:25;58.20;;;21.33;;
21458;SDS011;10891;49.350;19.386;2023-11-18T08:25:53;90.28;;;35.00;;
21458;SDS011;10891;49.350;19.386;2023-11-18T08:28:21;50.47;;;22.30;;
21458;SDS011;10891;49.350;19.386;2023-11-18T08:30:49;3.65;;;2.33;;
21458;SDS011;10891;49.350;19.386;2023-11-18T08:33:18;4.95;;;3.20;;
21458;SDS011;10891;49.350;19.386;2023-11-18T08:35:45;5.05;;;2.55;;
21458;SDS011;10891;49.350;19.386;2023-11-18T08:38:13;2.53;;;1.70;;
21458;SDS011;10891;49.350;19.386;2023-11-18T08:40:40;4.88;;;2.13;;
21458;SDS011;10891;49.350;19.386;2023-11-18T08:43:10;3.78;;;2.85;;
21458;SDS011;10891;49.350;19.386;2023-11-18T08:45:38;3.55;;;2.60;;
21458;SDS011;10891;49.350;19.386;2023-11-18T08:48:06;3.97;;;2.05;;
21458;SDS011;10891;49.350;19.386;2023-11-18T08:50:34;3.17;;;2.38;;
21458;SDS011;10891;49.350;19.386;2023-11-18T08:53:01;23.70;;;8.93;;
21458;SDS011;10891;49.350;19.386;2023-11-18T08:55:32;13.32;;;5.72;;
21458;SDS011;10891;49.350;19.386;2023-11-18T08:58:16;43.40;;;15.90;;
21458;SDS011;10891;49.350;19.386;2023-11-18T09:00:46;26.92;;;8.82;;
21458;SDS011;10891;49.350;19.386;2023-11-18T09:03:18;71.05;;;21.23;;
21458;SDS011;10891;49.350;19.386;2023-11-18T09:05:51;60.63;;;22.55;;
21458;SDS011;10891;49.350;19.386;2023-11-18T09:08:29;12.85;;;6.93;;
21458;SDS011;10891;49.350;19.386;2023-11-18T09:11:00;32.65;;;9.85;;
21458;SDS011;10891;49.350;19.386;2023-11-18T09:13:27;13.63;;;5.80;;
21458;SDS011;10891;49.350;19.386;2023-11-18T09:15:56;22.73;;;11.57;;
21458;SDS011;10891;49.350;19.386;2023-11-18T09:18:25;10.48;;;6.50;;
21458;SDS011;10891;49.350;19.386;2023-11-18T09:20:52;34.58;;;16.08;;
21458;SDS011;10891;49.350;19.386;2023-11-18T09:23:21;23.95;;;10.48;;
21458;SDS011;10891;49.350;19.386;2023-11-18T09:25:50;26.92;;;10.68;;
21458;SDS011;10891;49.350;19.386;2023-11-18T09:28:18;16.10;;;8.25;;
21458;SDS011;10891;49.350;19.386;2023-11-18T09:30:46;31.15;;;13.38;;
21458;SDS011;10891;49.350;19.386;2023-11-18T09:33:20;37.47;;;16.52;;
21458;SDS011;10891;49.350;19.386;2023-11-18T09:35:59;9.82;;;4.50;;
21458;SDS011;10891;49.350;19.386;2023-11-18T09:38:27;5.50;;;3.20;;
21458;SDS011;10891;49.350;19.386;2023-11-18T09:40:54;10.40;;;3.30;;
21458;SDS011;10891;49.350;19.386;2023-11-18T09:43:21;4.90;;;3.03;;
21458;SDS011;10891;49.350;19.386;2023-11-18T09:45:49;4.93;;;3.05;;
21458;SDS011;10891;49.350;19.386;2023-11-18T09:48:21;5.82;;;3.95;;
21458;SDS011;10891;49.350;19.386;2023-11-18T09:50:52;6.25;;;4.55;;
21458;SDS011;10891;49.350;19.386;2023-11-18T09:53:19;17.67;;;8.73;;
21458;SDS011;10891;49.350;19.386;2023-11-18T09:55:53;18.35;;;8.85;;
21458;SDS011;10891;49.350;19.386;2023-11-18T09:58:25;21.50;;;8.98;;
21458;SDS011;10891;49.350;19.386;2023-11-18T10:00:59;10.43;;;4.63;;
21458;SDS011;10891;49.350;19.386;2023-11-18T10:03:31;3.95;;;2.47;;
21458;SDS011;10891;49.350;19.386;2023-11-18T10:06:01;7.05;;;2.97;;
21458;SDS011;10891;49.350;19.386;2023-11-18T10:08:31;10.70;;;3.40;;
21458;SDS011;10891;49.350;19.386;2023-11-18T10:10:58;38.35;;;10.35;;
21458;SDS011;10891;49.350;19.386;2023-11-18T10:13:34;25.30;;;7.60;;
21458;SDS011;10891;49.350;19.386;2023-11-18T10:16:06;10.60;;;5.22;;
21458;SDS011;10891;49.350;19.386;2023-11-18T10:18:33;4.35;;;2.80;;
21458;SDS011;10891;49.350;19.386;2023-11-18T10:21:02;9.93;;;5.00;;
21458;SDS011;10891;49.350;19.386;2023-11-18T10:23:33;7.40;;;4.30;;
21458;SDS011;10891;49.350;19.386;2023-11-18T10:26:02;32.10;;;10.52;;
21458;SDS011;10891;49.350;19.386;2023-11-18T10:28:30;14.40;;;7.15;;
21458;SDS011;10891;49.350;19.386;2023-11-18T10:30:58;15.55;;;7.72;;
21458;SDS011;10891;49.350;19.386;2023-11-18T10:33:29;11.70;;;4.85;;
21458;SDS011;10891;49.350;19.386;2023-11-18T10:36:02;17.17;;;6.38;;
21458;SDS011;10891;49.350;19.386;2023-11-18T10:38:32;18.52;;;7.88;;
21458;SDS011;10891;49.350;19.386;2023-11-18T10:41:01;14.30;;;7.18;;
21458;SDS011;10891;49.350;19.386;2023-11-18T10:43:30;13.85;;;6.30;;
21458;SDS011;10891;49.350;19.386;2023-11-18T10:46:04;12.93;;;5.47;;
21458;SDS011;10891;49.350;19.386;2023-11-18T10:48:37;8.45;;;5.47;;
21458;SDS011;10891;49.350;19.386;2023-11-18T10:51:07;8.50;;;4.68;;
21458;SDS011;10891;49.350;19.386;2023-11-18T10:53:38;9.00;;;4.60;;
21458;SDS011;10891;49.350;19.386;2023-11-18T10:56:16;17.17;;;7.70;;
21458;SDS011;10891;49.350;19.386;2023-11-18T10:58:49;34.40;;;13.60;;
21458;SDS011;10891;49.350;19.386;2023-11-18T11:01:26;41.58;;;18.75;;
21458;SDS011;10891;49.350;19.386;2023-11-18T11:03:54;22.95;;;10.48;;
21458;SDS011;10891;49.350;19.386;2023-11-18T11:06:23;10.98;;;5.30;;
21458;SDS011;10891;49.350;19.386;2023-11-18T11:08:51;8.07;;;5.20;;
21458;SDS011;10891;49.350;19.386;2023-11-18T11:11:19;8.35;;;4.97;;
21458;SDS011;10891;49.350;19.386;2023-11-18T11:13:49;8.10;;;5.20;;
21458;SDS011;10891;49.350;19.386;2023-11-18T11:16:18;7.18;;;3.55;;
21458;SDS011;10891;49.350;19.386;2023-11-18T11:18:47;12.77;;;6.97;;
21458;SDS011;10891;49.350;19.386;2023-11-18T11:21:19;9.70;;;5.47;;
21458;SDS011;10891;49.350;19.386;2023-11-18T11:23:53;10.82;;;4.68;;
21458;SDS011;10891;49.350;19.386;2023-11-18T11:26:24;10.30;;;5.28;;
21458;SDS011;10891;49.350;19.386;2023-11-18T11:28:57;11.25;;;5.38;;
21458;SDS011;10891;49.350;19.386;2023-11-18T11:31:26;40.85;;;17.85;;
21458;SDS011;10891;49.350;19.386;2023-11-18T11:33:58;78.30;;;30.00;;
21458;SDS011;10891;49.350;19.386;2023-11-18T11:36:29;114.28;;;45.65;;
21458;SDS011;10891;49.350;19.386;2023-11-18T11:39:00;59.97;;;23.85;;
21458;SDS011;10891;49.350;19.386;2023-11-18T11:41:28;11.30;;;6.60;;
21458;SDS011;10891;49.350;19.386;2023-11-18T11:43:59;15.52;;;7.10;;
21458;SDS011;10891;49.350;19.386;2023-11-18T11:46:27;58.65;;;24.25;;
21458;SDS011;10891;49.350;19.386;2023-11-18T11:48:59;19.88;;;9.40;;
21458;SDS011;10891;49.350;19.386;2023-11-18T11:51:36;3.30;;;2.55;;
21458;SDS011;10891;49.350;19.386;2023-11-18T11:54:06;15.98;;;8.02;;
21458;SDS011;10891;49.350;19.386;2023-11-18T11:56:41;5.20;;;2.70;;
21458;SDS011;10891;49.350;19.386;2023-11-18T11:59:12;17.50;;;6.07;;
21458;SDS011;10891;49.350;19.386;2023-11-18T12:01:39;9.20;;;4.57;;
21458;SDS011;10891;49.350;19.386;2023-11-18T12:04:11;16.60;;;8.27;;
21458;SDS011;10891;49.350;19.386;2023-11-18T12:06:46;5.22;;;3.00;;
21458;SDS011;10891;49.350;19.386;2023-11-18T12:09:19;12.15;;;6.25;;
21458;SDS011;10891;49.350;19.386;2023-11-18T12:11:46;7.32;;;3.90;;
21458;SDS011;10891;49.350;19.386;2023-11-18T12:14:15;12.60;;;6.85;;
21458;SDS011;10891;49.350;19.386;2023-11-18T12:17:00;15.07;;;8.20;;
21458;SDS011;10891;49.350;19.386;2023-11-18T12:19:33;6.07;;;3.13;;
21458;SDS011;10891;49.350;19.386;2023-11-18T12:22:10;12.20;;;6.47;;
21458;SDS011;10891;49.350;19.386;2023-11-18T12:24:45;21.75;;;10.20;;
21458;SDS011;10891;49.350;19.386;2023-11-18T12:30:00;3.67;;;2.20;;
21458;SDS011;10891;49.350;19.386;2023-11-18T12:35:12;48.08;;;19.45;;
21458;SDS011;10891;49.350;19.386;2023-11-18T12:38:01;13.95;;;6.55;;
21458;SDS011;10891;49.350;19.386;2023-11-18T12:43:47;8.15;;;4.57;;
21458;SDS011;10891;49.350;19.386;2023-11-18T12:49:02;76.60;;;39.15;;
21458;SDS011;10891;49.350;19.386;2023-11-18T12:51:30;13.95;;;7.65;;
21458;SDS011;10891;49.350;19.386;2023-11-18T12:54:02;12.20;;;6.88;;
21458;SDS011;10891;49.350;19.386;2023-11-18T12:56:32;36.00;;;18.38;;
21458;SDS011;10891;49.350;19.386;2023-11-18T12:59:00;5.28;;;3.10;;
21458;SDS011;10891;49.350;19.386;2023-11-18T13:01:31;27.83;;;14.68;;
21458;SDS011;10891;49.350;19.386;2023-11-18T13:04:01;37.78;;;17.98;;
21458;SDS011;10891;49.350;19.386;2023-11-18T13:06:28;57.30;;;27.05;;
21458;SDS011;10891;49.350;19.386;2023-11-18T13:08:55;5.57;;;3.42;;
21458;SDS011;10891;49.350;19.386;2023-11-18T13:11:23;47.85;;;20.60;;
21458;SDS011;10891;49.350;19.386;2023-11-18T13:13:51;5.47;;;3.50;;
21458;SDS011;10891;49.350;19.386;2023-11-18T13:16:21;50.53;;;15.45;;
21458;SDS011;10891;49.350;19.386;2023-11-18T13:18:50;143.73;;;54.30;;
21458;SDS011;10891;49.350;19.386;2023-11-18T13:21:20;82.22;;;35.33;;
21458;SDS011;10891;49.350;19.386;2023-11-18T13:23:48;48.22;;;20.00;;
21458;SDS011;10891;49.350;19.386;2023-11-18T13:26:17;33.47;;;13.65;;
21458;SDS011;10891;49.350;19.386;2023-11-18T13:28:46;81.45;;;33.78;;
21458;SDS011;10891;49.350;19.386;2023-11-18T13:31:14;85.68;;;33.45;;
21458;SDS011;10891;49.350;19.386;2023-11-18T13:33:43;13.65;;;5.35;;
21458;SDS011;10891;49.350;19.386;2023-11-18T13:36:12;81.50;;;20.95;;
21458;SDS011;10891;49.350;19.386;2023-11-18T13:38:40;73.28;;;28.02;;
21458;SDS011;10891;49.350;19.386;2023-11-18T13:41:09;150.40;;;36.65;;
21458;SDS011;10891;49.350;19.386;2023-11-18T13:43:41;125.45;;;32.75;;
21458;SDS011;10891;49.350;19.386;2023-11-18T13:46:11;100.18;;;33.85;;
21458;SDS011;10891;49.350;19.386;2023-11-18T13:48:39;44.30;;;14.10;;
21458;SDS011;10891;49.350;19.386;2023-11-18T13:51:08;50.50;;;20.02;;
21458;SDS011;10891;49.350;19.386;2023-11-18T13:53:39;100.60;;;36.30;;
21458;SDS011;10891;49.350;19.386;2023-11-18T13:56:08;105.15;;;32.58;;
21458;SDS011;10891;49.350;19.386;2023-11-18T13:58:36;18.90;;;9.32;;
21458;SDS011;10891;49.350;19.386;2023-11-18T14:01:04;46.28;;;19.77;;
21458;SDS011;10891;49.350;19.386;2023-11-18T14:03:32;35.67;;;22.17;;
21458;SDS011;10891;49.350;19.386;2023-11-18T14:05:59;21.05;;;14.05;;
21458;SDS011;10891;49.350;19.386;2023-11-18T14:08:28;14.52;;;9.23;;
21458;SDS011;10891;49.350;19.386;2023-11-18T14:10:56;19.95;;;11.52;;
21458;SDS011;10891;49.350;19.386;2023-11-18T14:13:23;15.15;;;9.63;;
21458;SDS011;10891;49.350;19.386;2023-11-18T14:15:53;17.05;;;8.45;;
21458;SDS011;10891;49.350;19.386;2023-11-18T14:18:22;14.73;;;7.55;;
21458;SDS011;10891;49.350;19.386;2023-11-18T14:20:49;18.52;;;11.50;;
21458;SDS011;10891;49.350;19.386;2023-11-18T14:23:17;35.40;;;17.10;;
21458;SDS011;10891;49.350;19.386;2023-11-18T14:25:45;60.38;;;27.08;;
21458;SDS011;10891;49.350;19.386;2023-11-18T14:28:13;28.38;;;14.18;;
21458;SDS011;10891;49.350;19.386;2023-11-18T14:30:41;19.38;;;10.10;;
21458;SDS011;10891;49.350;19.386;2023-11-18T14:33:08;9.25;;;6.80;;
21458;SDS011;10891;49.350;19.386;2023-11-18T14:35:35;155.57;;;43.38;;
21458;SDS011;10891;49.350;19.386;2023-11-18T14:38:02;132.90;;;33.33;;
21458;SDS011;10891;49.350;19.386;2023-11-18T14:40:30;93.70;;;35.42;;
21458;SDS011;10891;49.350;19.386;2023-11-18T14:43:00;54.42;;;20.90;;
21458;SDS011;10891;49.350;19.386;2023-11-18T14:45:27;104.35;;;27.67;;